sensor_id;sensor_type;location;lat;lon;timestamp;pressure;altitude;pressure_sealevel;temperature;humidity
11971;BME280;6045;42.682;23.294;2023-08-20T00:01:22;94882.81;;;23.33;56.18
11971;BME280;6045;42.682;23.294;2023-08-20T00:03:51;94879.91;;;23.43;56.34
11971;BME280;6045;42.682;23.294;2023-08-20T00:06:19;94876.34;;;23.29;56.18
11971;BME280;6045;42.682;23.294;2023-08-20T00:08:48;94882.91;;;23.28;56.40
11971;BME280;6045;42.682;23.294;2023-08-20T00:11:15;94879.38;;;23.27;56.70
11971;BME280;6045;42.682;23.294;2023-08-20T00:13:42;94876.44;;;23.24;56.18
11971;BME280;6045;42.682;23.294;2023-08-20T00:16:09;94870.91;;;23.42;56.11
11971;BME280;6045;42.682;23.294;2023-08-20T00:18:37;94871.31;;;23.49;55.75
11971;BME280;6045;42.682;23.294;2023-08-20T00:21:05;94882.56;;;23.48;55.68
11971;BME280;6045;42.682;23.294;2023-08-20T00:23:32;94872.84;;;23.42;55.83
11971;BME280;6045;42.682;23.294;2023-08-20T00:26:01;94877.88;;;23.35;55.85
11971;BME280;6045;42.682;23.294;2023-08-20T00:28:28;94884.97;;;23.36;55.61
11971;BME280;6045;42.682;23.294;2023-08-20T00:30:56;94880.63;;;23.35;56.09
11971;BME280;6045;42.682;23.294;2023-08-20T00:33:22;94881.22;;;23.45;56.06
11971;BME280;6045;42.682;23.294;2023-08-20T00:35:49;94884.78;;;23.46;56.06
11971;BME280;6045;42.682;23.294;2023-08-20T00:38:16;94880.09;;;23.46;55.77
11971;BME280;6045;42.682;23.294;2023-08-20T00:40:43;94877.78;;;23.40;55.83
11971;BME280;6045;42.682;23.294;2023-08-20T00:43:11;94877.59;;;23.36;56.00
11971;BME280;6045;42.682;23.294;2023-08-20T00:45:40;94872.56;;;23.43;55.96
11971;BME280;6045;42.682;23.294;2023-08-20T00:48:07;94871.53;;;23.53;55.37
11971;BME280;6045;42.682;23.294;2023-08-20T00:50:34;94878.00;;;23.57;55.24
11971;BME280;6045;42.682;23.294;2023-08-20T00:53:01;94885.19;;;23.53;55.29
11971;BME280;6045;42.682;23.294;2023-08-20T00:55:28;94874.94;;;23.58;55.31
11971;BME280;6045;42.682;23.294;2023-08-20T00:57:56;94873.34;;;23.44;55.74
11971;BME280;6045;42.682;23.294;2023-08-20T01:00:24;94873.97;;;23.41;55.96
11971;BME280;6045;42.682;23.294;2023-08-20T01:02:51;94866.69;;;23.50;55.67
11971;BME280;6045;42.682;23.294;2023-08-20T01:05:18;94871.72;;;23.43;55.75
11971;BME280;6045;42.682;23.294;2023-08-20T01:07:57;94884.66;;;23.51;55.43
11971;BME280;6045;42.682;23.294;2023-08-20T01:10:33;94877.41;;;23.60;55.43
11971;BME280;6045;42.682;23.294;2023-08-20T01:13:00;94881.63;;;23.66;55.66
11971;BME280;6045;42.682;23.294;2023-08-20T01:15:30;94879.81;;;23.61;55.85
11971;BME280;6045;42.682;23.294;2023-08-20T01:17:58;94877.41;;;23.60;55.69
11971;BME280;6045;42.682;23.294;2023-08-20T01:20:27;94877.19;;;23.56;55.67
11971;BME280;6045;42.682;23.294;2023-08-20T01:23:12;94875.69;;;23.50;56.06
11971;BME280;6045;42.682;23.294;2023-08-20T01:25:54;94872.31;;;23.53;56.07
11971;BME280;6045;42.682;23.294;2023-08-20T01:28:28;94881.91;;;23.51;55.92
11971;BME280;6045;42.682;23.294;2023-08-20T01:30:57;94875.16;;;23.48;55.67
11971;BME280;6045;42.682;23.294;2023-08-20T01:33:25;94868.00;;;23.39;56.35
11971;BME280;6045;42.682;23.294;2023-08-20T01:35:53;94863.34;;;23.39;56.17
11971;BME280;6045;42.682;23.294;2023-08-20T01:38:20;94866.03;;;23.26;56.65
11971;BME280;6045;42.682;23.294;2023-08-20T01:40:47;94861.59;;;23.30;56.49
11971;BME280;6045;42.682;23.294;2023-08-20T01:43:14;94860.91;;;23.38;56.23
11971;BME280;6045;42.682;23.294;2023-08-20T01:45:43;94860.16;;;23.19;56.93
11971;BME280;6045;42.682;23.294;2023-08-20T01:48:10;94859.06;;;23.20;56.91
11971;BME280;6045;42.682;23.294;2023-08-20T01:50:37;94854.91;;;23.08;57.20
11971;BME280;6045;42.682;23.294;2023-08-20T01:53:04;94851.28;;;23.13;57.10
11971;BME280;6045;42.682;23.294;2023-08-20T01:55:31;94846.44;;;23.10;57.24
11971;BME280;6045;42.682;23.294;2023-08-20T01:57:57;94846.81;;;23.03;57.63
11971;BME280;6045;42.682;23.294;2023-08-20T02:00:25;94850.50;;;23.12;57.12
11971;BME280;6045;42.682;23.294;2023-08-20T02:02:54;94844.31;;;23.21;56.86
11971;BME280;6045;42.682;23.294;2023-08-20T02:05:21;94835.53;;;23.10;57.36
11971;BME280;6045;42.682;23.294;2023-08-20T02:07:47;94845.63;;;23.09;57.46
11971;BME280;6045;42.682;23.294;2023-08-20T02:10:14;94841.09;;;23.19;57.22
11971;BME280;6045;42.682;23.294;2023-08-20T02:12:41;94847.03;;;23.21;57.67
11971;BME280;6045;42.682;23.294;2023-08-20T02:15:09;94836.34;;;23.24;57.81
11971;BME280;6045;42.682;23.294;2023-08-20T02:17:37;94832.91;;;23.19;57.33
11971;BME280;6045;42.682;23.294;2023-08-20T02:20:06;94834.50;;;23.06;57.82
11971;BME280;6045;42.682;23.294;2023-08-20T02:22:35;94835.72;;;23.13;57.59
11971;BME280;6045;42.682;23.294;2023-08-20T02:25:02;94831.91;;;23.14;58.12
11971;BME280;6045;42.682;23.294;2023-08-20T02:27:29;94840.56;;;23.17;57.50
11971;BME280;6045;42.682;23.294;2023-08-20T02:29:56;94838.94;;;23.15;57.60
11971;BME280;6045;42.682;23.294;2023-08-20T02:32:22;94842.50;;;23.16;58.25
11971;BME280;6045;42.682;23.294;2023-08-20T02:34:50;94839.97;;;23.20;57.92
11971;BME280;6045;42.682;23.294;2023-08-20T02:37:18;94837.75;;;23.22;57.83
11971;BME280;6045;42.682;23.294;2023-08-20T02:39:45;94840.19;;;23.09;58.57
11971;BME280;6045;42.682;23.294;2023-08-20T02:42:12;94846.13;;;23.11;58.19
11971;BME280;6045;42.682;23.294;2023-08-20T02:44:39;94845.03;;;23.12;58.16
11971;BME280;6045;42.682;23.294;2023-08-20T02:47:06;94847.13;;;23.15;57.90
11971;BME280;6045;42.682;23.294;2023-08-20T02:49:32;94853.31;;;23.21;58.09
11971;BME280;6045;42.682;23.294;2023-08-20T02:51:59;94856.25;;;23.25;58.03
11971;BME280;6045;42.682;23.294;2023-08-20T02:54:27;94852.09;;;23.27;58.01
11971;BME280;6045;42.682;23.294;2023-08-20T02:56:57;94851.31;;;23.27;57.97
11971;BME280;6045;42.682;23.294;2023-08-20T02:59:24;94855.63;;;23.28;58.05
11971;BME280;6045;42.682;23.294;2023-08-20T03:01:51;94860.56;;;23.26;58.36
11971;BME280;6045;42.682;23.294;2023-08-20T03:04:18;94859.47;;;23.27;58.25
11971;BME280;6045;42.682;23.294;2023-08-20T03:06:45;94867.44;;;23.23;58.62
11971;BME280;6045;42.682;23.294;2023-08-20T03:09:11;94860.56;;;23.26;58.54
11971;BME280;6045;42.682;23.294;2023-08-20T03:11:40;94873.72;;;23.24;58.99
11971;BME280;6045;42.682;23.294;2023-08-20T03:14:06;94872.09;;;23.23;59.17
11971;BME280;6045;42.682;23.294;2023-08-20T03:16:33;94857.94;;;23.21;59.08
11971;BME280;6045;42.682;23.294;2023-08-20T03:19:00;94862.41;;;23.17;59.27
11971;BME280;6045;42.682;23.294;2023-08-20T03:21:28;94867.22;;;23.06;59.58
11971;BME280;6045;42.682;23.294;2023-08-20T03:23:54;94870.53;;;22.89;59.95
11971;BME280;6045;42.682;23.294;2023-08-20T03:26:21;94863.88;;;22.82;60.55
11971;BME280;6045;42.682;23.294;2023-08-20T03:28:49;94867.03;;;22.89;60.65
11971;BME280;6045;42.682;23.294;2023-08-20T03:31:16;94858.53;;;22.90;60.84
11971;BME280;6045;42.682;23.294;2023-08-20T03:33:43;94863.38;;;22.93;60.56
11971;BME280;6045;42.682;23.294;2023-08-20T03:36:10;94860.75;;;22.88;60.69
11971;BME280;6045;42.682;23.294;2023-08-20T03:38:37;94860.94;;;22.92;60.51
11971;BME280;6045;42.682;23.294;2023-08-20T03:41:04;94858.34;;;22.87;60.87
11971;BME280;6045;42.682;23.294;2023-08-20T03:43:30;94862.97;;;22.86;60.98
11971;BME280;6045;42.682;23.294;2023-08-20T03:45:59;94861.34;;;22.85;60.90
11971;BME280;6045;42.682;23.294;2023-08-20T03:48:25;94857.53;;;22.86;60.79
11971;BME280;6045;42.682;23.294;2023-08-20T03:50:52;94848.53;;;22.86;60.81
11971;BME280;6045;42.682;23.294;2023-08-20T03:53:19;94850.84;;;22.79;61.38
11971;BME280;6045;42.682;23.294;2023-08-20T03:55:49;94854.38;;;22.79;61.55
11971;BME280;6045;42.682;23.294;2023-08-20T03:58:16;94845.16;;;22.75;61.56
11971;BME280;6045;42.682;23.294;2023-08-20T04:00:44;94851.44;;;22.76;61.56
11971;BME280;6045;42.682;23.294;2023-08-20T04:03:12;94849.53;;;22.76;61.60
11971;BME280;6045;42.682;23.294;2023-08-20T04:05:39;94841.84;;;22.78;61.64
11971;BME280;6045;42.682;23.294;2023-08-20T04:08:06;94849.00;;;22.74;61.75
11971;BME280;6045;42.682;23.294;2023-08-20T04:10:33;94843.56;;;22.74;61.66
11971;BME280;6045;42.682;23.294;2023-08-20T04:13:00;94844.06;;;22.76;61.65
11971;BME280;6045;42.682;23.294;2023-08-20T04:15:27;94844.16;;;22.85;61.77
11971;BME280;6045;42.682;23.294;2023-08-20T04:17:54;94853.28;;;22.94;61.64
11971;BME280;6045;42.682;23.294;2023-08-20T04:20:22;94849.66;;;22.98;61.82
11971;BME280;6045;42.682;23.294;2023-08-20T04:22:49;94843.59;;;23.01;62.05
11971;BME280;6045;42.682;23.294;2023-08-20T04:25:16;94843.00;;;23.04;61.97
11971;BME280;6045;42.682;23.294;2023-08-20T04:27:44;94853.31;;;23.07;61.93
11971;BME280;6045;42.682;23.294;2023-08-20T04:30:12;94847.72;;;22.99;62.04
11971;BME280;6045;42.682;23.294;2023-08-20T04:32:39;94852.91;;;23.00;62.22
11971;BME280;6045;42.682;23.294;2023-08-20T04:35:07;94852.81;;;23.05;62.39
11971;BME280;6045;42.682;23.294;2023-08-20T04:37:35;94851.69;;;23.06;62.58
11971;BME280;6045;42.682;23.294;2023-08-20T04:40:02;94862.31;;;23.08;62.64
11971;BME280;6045;42.682;23.294;2023-08-20T04:42:31;94855.94;;;23.12;62.61
11971;BME280;6045;42.682;23.294;2023-08-20T04:44:57;94858.44;;;23.23;62.13
11971;BME280;6045;42.682;23.294;2023-08-20T04:47:24;94864.84;;;23.32;62.01
11971;BME280;6045;42.682;23.294;2023-08-20T04:49:51;94860.41;;;23.36;61.11
11971;BME280;6045;42.682;23.294;2023-08-20T04:52:18;94862.13;;;23.45;61.48
11971;BME280;6045;42.682;23.294;2023-08-20T04:54:47;94860.41;;;23.49;60.62
11971;BME280;6045;42.682;23.294;2023-08-20T04:57:14;94861.31;;;23.58;60.38
11971;BME280;6045;42.682;23.294;2023-08-20T04:59:41;94860.50;;;23.58;60.35
11971;BME280;6045;42.682;23.294;2023-08-20T05:02:10;94865.25;;;23.66;59.95
11971;BME280;6045;42.682;23.294;2023-08-20T05:04:38;94862.97;;;23.81;59.49
11971;BME280;6045;42.682;23.294;2023-08-20T05:07:04;94863.59;;;23.92;59.55
11971;BME280;6045;42.682;23.294;2023-08-20T05:09:32;94861.25;;;23.99;59.59
11971;BME280;6045;42.682;23.294;2023-08-20T05:12:01;94864.94;;;24.17;58.83
11971;BME280;6045;42.682;23.294;2023-08-20T05:14:27;94870.22;;;24.35;58.17
11971;BME280;6045;42.682;23.294;2023-08-20T05:16:54;94863.81;;;24.54;57.63
11971;BME280;6045;42.682;23.294;2023-08-20T05:19:21;94868.38;;;24.67;57.46
11971;BME280;6045;42.682;23.294;2023-08-20T05:21:48;94867.44;;;24.71;58.04
11971;BME280;6045;42.682;23.294;2023-08-20T05:24:15;94874.50;;;24.86;57.41
11971;BME280;6045;42.682;23.294;2023-08-20T05:26:42;94876.72;;;25.06;57.10
11971;BME280;6045;42.682;23.294;2023-08-20T05:29:10;94874.50;;;25.17;56.55
11971;BME280;6045;42.682;23.294;2023-08-20T05:31:38;94883.09;;;25.32;55.76
11971;BME280;6045;42.682;23.294;2023-08-20T05:34:05;94876.91;;;25.49;55.37
11971;BME280;6045;42.682;23.294;2023-08-20T05:36:32;94877.66;;;25.71;55.05
11971;BME280;6045;42.682;23.294;2023-08-20T05:38:59;94882.84;;;25.90;55.16
11971;BME280;6045;42.682;23.294;2023-08-20T05:41:25;94880.94;;;26.08;54.25
11971;BME280;6045;42.682;23.294;2023-08-20T05:43:52;94872.94;;;26.28;53.15
11971;BME280;6045;42.682;23.294;2023-08-20T05:46:20;94886.47;;;26.51;52.53
11971;BME280;6045;42.682;23.294;2023-08-20T05:48:47;94890.50;;;26.70;52.30
11971;BME280;6045;42.682;23.294;2023-08-20T05:51:14;94884.06;;;26.92;51.48
11971;BME280;6045;42.682;23.294;2023-08-20T05:53:41;94884.31;;;27.07;50.83
11971;BME280;6045;42.682;23.294;2023-08-20T05:56:08;94883.81;;;27.23;50.79
11971;BME280;6045;42.682;23.294;2023-08-20T05:58:35;94881.50;;;27.42;49.86
11971;BME280;6045;42.682;23.294;2023-08-20T06:01:02;94883.13;;;27.43;50.30
11971;BME280;6045;42.682;23.294;2023-08-20T06:03:30;94881.59;;;27.62;49.98
11971;BME280;6045;42.682;23.294;2023-08-20T06:06:00;94878.97;;;27.95;48.99
11971;BME280;6045;42.682;23.294;2023-08-20T06:08:27;94881.03;;;28.07;48.08
11971;BME280;6045;42.682;23.294;2023-08-20T06:10:54;94885.06;;;28.09;47.96
11971;BME280;6045;42.682;23.294;2023-08-20T06:13:21;94882.13;;;28.35;46.84
11971;BME280;6045;42.682;23.294;2023-08-20T06:15:48;94881.00;;;28.57;46.02
11971;BME280;6045;42.682;23.294;2023-08-20T06:18:15;94889.94;;;28.74;45.92
11971;BME280;6045;42.682;23.294;2023-08-20T06:20:43;94887.94;;;28.95;45.21
11971;BME280;6045;42.682;23.294;2023-08-20T06:23:10;94885.94;;;29.17;43.92
11971;BME280;6045;42.682;23.294;2023-08-20T06:25:37;94890.97;;;29.47;42.91
11971;BME280;6045;42.682;23.294;2023-08-20T06:28:04;94888.38;;;29.63;42.84
11971;BME280;6045;42.682;23.294;2023-08-20T06:30:31;94896.56;;;29.84;42.81
11971;BME280;6045;42.682;23.294;2023-08-20T06:32:58;94890.69;;;29.97;43.01
11971;BME280;6045;42.682;23.294;2023-08-20T06:35:25;94888.03;;;30.25;40.74
11971;BME280;6045;42.682;23.294;2023-08-20T06:37:53;94889.63;;;30.50;40.25
11971;BME280;6045;42.682;23.294;2023-08-20T06:40:20;94888.03;;;30.77;40.86
11971;BME280;6045;42.682;23.294;2023-08-20T06:42:47;94894.81;;;30.79;40.75
11971;BME280;6045;42.682;23.294;2023-08-20T06:45:13;94891.13;;;30.87;40.68
11971;BME280;6045;42.682;23.294;2023-08-20T06:47:40;94897.78;;;30.86;39.78
11971;BME280;6045;42.682;23.294;2023-08-20T06:50:08;94897.41;;;31.00;40.13
11971;BME280;6045;42.682;23.294;2023-08-20T06:52:35;94890.97;;;31.24;39.21
11971;BME280;6045;42.682;23.294;2023-08-20T06:55:03;94891.41;;;31.53;38.39
11971;BME280;6045;42.682;23.294;2023-08-20T06:57:30;94890.72;;;31.72;38.67
11971;BME280;6045;42.682;23.294;2023-08-20T06:59:57;94895.53;;;32.06;36.94
11971;BME280;6045;42.682;23.294;2023-08-20T07:02:24;94890.50;;;32.27;36.62
11971;BME280;6045;42.682;23.294;2023-08-20T07:04:51;94893.06;;;32.52;36.62
11971;BME280;6045;42.682;23.294;2023-08-20T07:07:18;94892.94;;;32.48;37.28
11971;BME280;6045;42.682;23.294;2023-08-20T07:09:45;94891.25;;;32.59;35.48
11971;BME280;6045;42.682;23.294;2023-08-20T07:12:13;94892.88;;;32.44;35.32
11971;BME280;6045;42.682;23.294;2023-08-20T07:14:40;94890.81;;;32.41;34.98
11971;BME280;6045;42.682;23.294;2023-08-20T07:17:06;94891.66;;;32.26;35.55
11971;BME280;6045;42.682;23.294;2023-08-20T07:19:33;94889.69;;;32.27;35.56
11971;BME280;6045;42.682;23.294;2023-08-20T07:22:00;94894.38;;;32.58;34.52
11971;BME280;6045;42.682;23.294;2023-08-20T07:24:27;94889.13;;;32.53;34.28
11971;BME280;6045;42.682;23.294;2023-08-20T07:26:55;94891.44;;;32.51;35.08
11971;BME280;6045;42.682;23.294;2023-08-20T07:29:28;94893.59;;;32.41;34.63
11971;BME280;6045;42.682;23.294;2023-08-20T07:31:55;94892.63;;;32.34;34.39
11971;BME280;6045;42.682;23.294;2023-08-20T07:34:22;94897.31;;;31.83;35.11
11971;BME280;6045;42.682;23.294;2023-08-20T07:36:49;94891.94;;;31.59;35.26
11971;BME280;6045;42.682;23.294;2023-08-20T07:39:16;94888.50;;;31.34;35.53
11971;BME280;6045;42.682;23.294;2023-08-20T07:41:43;94898.47;;;30.95;36.24
11971;BME280;6045;42.682;23.294;2023-08-20T07:44:09;94911.81;;;30.41;38.00
11971;BME280;6045;42.682;23.294;2023-08-20T07:46:38;94900.41;;;30.55;37.62
11971;BME280;6045;42.682;23.294;2023-08-20T07:49:04;94901.47;;;30.90;36.92
11971;BME280;6045;42.682;23.294;2023-08-20T07:51:31;94899.63;;;30.94;36.72
11971;BME280;6045;42.682;23.294;2023-08-20T07:53:58;94900.47;;;30.43;37.10
11971;BME280;6045;42.682;23.294;2023-08-20T07:56:26;94900.56;;;30.10;37.91
11971;BME280;6045;42.682;23.294;2023-08-20T07:58:52;94899.66;;;30.06;38.18
11971;BME280;6045;42.682;23.294;2023-08-20T08:01:19;94901.75;;;30.33;37.93
11971;BME280;6045;42.682;23.294;2023-08-20T08:03:47;94892.09;;;30.67;37.68
11971;BME280;6045;42.682;23.294;2023-08-20T08:06:16;94895.84;;;31.15;35.90
11971;BME280;6045;42.682;23.294;2023-08-20T08:08:43;94898.47;;;30.83;36.60
11971;BME280;6045;42.682;23.294;2023-08-20T08:11:10;94884.91;;;31.18;36.44
11971;BME280;6045;42.682;23.294;2023-08-20T08:13:37;94896.28;;;31.01;37.14
11971;BME280;6045;42.682;23.294;2023-08-20T08:16:04;94887.50;;;31.70;35.71
11971;BME280;6045;42.682;23.294;2023-08-20T08:18:31;94890.25;;;32.01;35.04
11971;BME280;6045;42.682;23.294;2023-08-20T08:20:59;94893.75;;;32.49;34.66
11971;BME280;6045;42.682;23.294;2023-08-20T08:23:26;94895.72;;;33.21;32.20
11971;BME280;6045;42.682;23.294;2023-08-20T08:25:53;94896.63;;;33.06;32.41
11971;BME280;6045;42.682;23.294;2023-08-20T08:28:20;94896.38;;;33.15;31.06
11971;BME280;6045;42.682;23.294;2023-08-20T08:30:50;94894.91;;;33.40;30.23
11971;BME280;6045;42.682;23.294;2023-08-20T08:33:17;94890.34;;;33.70;29.79
11971;BME280;6045;42.682;23.294;2023-08-20T08:35:43;94899.09;;;33.72;31.04
11971;BME280;6045;42.682;23.294;2023-08-20T08:38:12;94893.22;;;34.00;30.58
11971;BME280;6045;42.682;23.294;2023-08-20T08:40:40;94890.28;;;34.38;29.61
11971;BME280;6045;42.682;23.294;2023-08-20T08:43:10;94898.66;;;34.41;29.23
11971;BME280;6045;42.682;23.294;2023-08-20T08:45:43;94895.19;;;34.74;28.99
11971;BME280;6045;42.682;23.294;2023-08-20T08:48:15;94899.38;;;34.61;28.46
11971;BME280;6045;42.682;23.294;2023-08-20T08:50:42;94901.72;;;34.85;27.08
11971;BME280;6045;42.682;23.294;2023-08-20T08:53:11;94891.13;;;34.42;27.73
11971;BME280;6045;42.682;23.294;2023-08-20T08:55:39;94901.16;;;34.01;27.71
11971;BME280;6045;42.682;23.294;2023-08-20T08:58:06;94890.22;;;33.86;28.15
11971;BME280;6045;42.682;23.294;2023-08-20T09:00:33;94894.59;;;33.87;28.28
11971;BME280;6045;42.682;23.294;2023-08-20T09:02:59;94890.31;;;34.15;28.16
11971;BME280;6045;42.682;23.294;2023-08-20T09:05:26;94890.69;;;34.14;27.97
11971;BME280;6045;42.682;23.294;2023-08-20T09:07:55;94897.88;;;34.41;28.18
11971;BME280;6045;42.682;23.294;2023-08-20T09:10:26;94896.13;;;34.56;28.60
11971;BME280;6045;42.682;23.294;2023-08-20T09:12:54;94886.94;;;34.81;28.61
11971;BME280;6045;42.682;23.294;2023-08-20T09:15:31;94889.41;;;35.16;27.51
11971;BME280;6045;42.682;23.294;2023-08-20T09:18:01;94881.81;;;35.50;27.02
11971;BME280;6045;42.682;23.294;2023-08-20T09:20:35;94883.81;;;35.86;26.14
11971;BME280;6045;42.682;23.294;2023-08-20T09:23:02;94874.50;;;35.68;27.00
11971;BME280;6045;42.682;23.294;2023-08-20T09:25:30;94886.00;;;35.66;27.07
11971;BME280;6045;42.682;23.294;2023-08-20T09:28:02;94884.97;;;35.82;26.57
11971;BME280;6045;42.682;23.294;2023-08-20T09:30:29;94891.56;;;36.03;24.86
11971;BME280;6045;42.682;23.294;2023-08-20T09:33:04;94878.69;;;35.92;25.51
11971;BME280;6045;42.682;23.294;2023-08-20T09:35:31;94877.28;;;35.68;25.19
11971;BME280;6045;42.682;23.294;2023-08-20T09:38:01;94875.69;;;35.67;25.88
11971;BME280;6045;42.682;23.294;2023-08-20T09:40:30;94876.56;;;35.78;26.05
11971;BME280;6045;42.682;23.294;2023-08-20T09:42:57;94881.94;;;35.57;24.73
11971;BME280;6045;42.682;23.294;2023-08-20T09:45:25;94883.50;;;35.54;24.83
11971;BME280;6045;42.682;23.294;2023-08-20T09:47:55;94875.13;;;35.51;24.96
11971;BME280;6045;42.682;23.294;2023-08-20T09:50:23;94879.00;;;35.80;24.66
11971;BME280;6045;42.682;23.294;2023-08-20T09:52:56;94868.59;;;35.73;25.39
11971;BME280;6045;42.682;23.294;2023-08-20T09:55:30;94872.22;;;35.77;25.23
11971;BME280;6045;42.682;23.294;2023-08-20T09:58:00;94863.47;;;35.42;26.07
11971;BME280;6045;42.682;23.294;2023-08-20T10:00:28;94863.66;;;35.56;25.84
11971;BME280;6045;42.682;23.294;2023-08-20T10:02:59;94872.06;;;36.03;25.38
11971;BME280;6045;42.682;23.294;2023-08-20T10:05:26;94857.44;;;36.17;24.48
11971;BME280;6045;42.682;23.294;2023-08-20T10:07:54;94868.69;;;36.31;24.12
11971;BME280;6045;42.682;23.294;2023-08-20T10:10:22;94871.44;;;36.27;23.51
11971;BME280;6045;42.682;23.294;2023-08-20T10:12:50;94861.75;;;36.07;24.57
11971;BME280;6045;42.682;23.294;2023-08-20T10:15:17;94864.19;;;36.12;25.17
11971;BME280;6045;42.682;23.294;2023-08-20T10:17:45;94861.47;;;36.81;24.94
11971;BME280;6045;42.682;23.294;2023-08-20T10:20:13;94868.66;;;36.89;24.50
11971;BME280;6045;42.682;23.294;2023-08-20T10:22:42;94874.84;;;36.54;23.80
11971;BME280;6045;42.682;23.294;2023-08-20T10:25:10;94867.41;;;36.76;23.78
11971;BME280;6045;42.682;23.294;2023-08-20T10:27:39;94863.78;;;36.65;24.70
11971;BME280;6045;42.682;23.294;2023-08-20T10:30:11;94866.38;;;37.05;23.51
11971;BME280;6045;42.682;23.294;2023-08-20T10:32:47;94873.91;;;37.01;22.97
11971;BME280;6045;42.682;23.294;2023-08-20T10:35:19;94869.34;;;36.65;24.54
11971;BME280;6045;42.682;23.294;2023-08-20T10:38:02;94869.91;;;36.95;23.54
11971;BME280;6045;42.682;23.294;2023-08-20T10:40:48;94854.47;;;37.22;23.97
11971;BME280;6045;42.682;23.294;2023-08-20T10:43:31;94855.00;;;37.59;23.76
11971;BME280;6045;42.682;23.294;2023-08-20T10:46:06;94852.66;;;38.14;22.62
11971;BME280;6045;42.682;23.294;2023-08-20T10:48:33;94857.03;;;37.84;22.04
11971;BME280;6045;42.682;23.294;2023-08-20T10:51:09;94845.88;;;37.98;22.04
11971;BME280;6045;42.682;23.294;2023-08-20T10:53:36;94844.69;;;37.92;22.39
11971;BME280;6045;42.682;23.294;2023-08-20T10:56:08;94840.69;;;38.28;23.01
11971;BME280;6045;42.682;23.294;2023-08-20T10:58:35;94849.88;;;38.46;22.97
11971;BME280;6045;42.682;23.294;2023-08-20T11:01:17;94845.84;;;38.61;22.61
11971;BME280;6045;42.682;23.294;2023-08-20T11:03:45;94848.28;;;38.31;23.19
11971;BME280;6045;42.682;23.294;2023-08-20T11:06:12;94846.66;;;38.44;22.71
11971;BME280;6045;42.682;23.294;2023-08-20T11:08:38;94834.31;;;38.38;21.70
11971;BME280;6045;42.682;23.294;2023-08-20T11:11:06;94829.91;;;38.41;21.41
11971;BME280;6045;42.682;23.294;2023-08-20T11:13:33;94830.34;;;38.32;22.10
11971;BME280;6045;42.682;23.294;2023-08-20T11:16:02;94831.84;;;38.61;22.29
11971;BME280;6045;42.682;23.294;2023-08-20T11:18:32;94825.50;;;38.47;22.22
11971;BME280;6045;42.682;23.294;2023-08-20T11:20:59;94832.69;;;38.23;21.49
11971;BME280;6045;42.682;23.294;2023-08-20T11:23:26;94826.69;;;37.64;21.78
11971;BME280;6045;42.682;23.294;2023-08-20T11:25:54;94836.53;;;37.16;22.45
11971;BME280;6045;42.682;23.294;2023-08-20T11:28:21;94825.41;;;37.34;22.67
11971;BME280;6045;42.682;23.294;2023-08-20T11:30:47;94820.31;;;37.60;22.96
11971;BME280;6045;42.682;23.294;2023-08-20T11:33:16;94825.13;;;37.71;22.20
11971;BME280;6045;42.682;23.294;2023-08-20T11:35:44;94813.56;;;37.61;22.69
11971;BME280;6045;42.682;23.294;2023-08-20T11:38:12;94820.78;;;37.87;22.63
11971;BME280;6045;42.682;23.294;2023-08-20T11:40:39;94815.94;;;38.02;22.33
11971;BME280;6045;42.682;23.294;2023-08-20T11:43:06;94813.94;;;37.74;22.92
11971;BME280;6045;42.682;23.294;2023-08-20T11:45:33;94807.53;;;37.49;24.28
11971;BME280;6045;42.682;23.294;2023-08-20T11:48:10;94805.19;;;37.68;22.75
11971;BME280;6045;42.682;23.294;2023-08-20T11:50:37;94813.13;;;37.74;22.70
11971;BME280;6045;42.682;23.294;2023-08-20T11:53:06;94811.13;;;37.42;22.49
11971;BME280;6045;42.682;23.294;2023-08-20T11:55:33;94807.53;;;37.52;22.73
11971;BME280;6045;42.682;23.294;2023-08-20T11:58:00;94805.16;;;37.51;23.23
11971;BME280;6045;42.682;23.294;2023-08-20T12:00:30;94800.38;;;37.58;23.10
11971;BME280;6045;42.682;23.294;2023-08-20T12:02:57;94797.13;;;37.28;23.59
11971;BME280;6045;42.682;23.294;2023-08-20T12:05:26;94801.19;;;37.52;23.79
11971;BME280;6045;42.682;23.294;2023-08-20T12:07:57;94796.38;;;37.59;23.25
11971;BME280;6045;42.682;23.294;2023-08-20T12:10:27;94792.78;;;37.55;23.61
11971;BME280;6045;42.682;23.294;2023-08-20T12:12:54;94798.31;;;37.24;23.00
11971;BME280;6045;42.682;23.294;2023-08-20T12:15:23;94797.88;;;37.22;23.17
11971;BME280;6045;42.682;23.294;2023-08-20T12:17:57;94794.72;;;37.34;23.16
11971;BME280;6045;42.682;23.294;2023-08-20T12:20:27;94791.16;;;37.33;23.82
11971;BME280;6045;42.682;23.294;2023-08-20T12:22:54;94792.41;;;37.53;23.22
11971;BME280;6045;42.682;23.294;2023-08-20T12:25:20;94775.66;;;37.53;22.78
11971;BME280;6045;42.682;23.294;2023-08-20T12:27:49;94784.38;;;37.34;23.41
11971;BME280;6045;42.682;23.294;2023-08-20T12:30:16;94783.22;;;37.46;24.04
11971;BME280;6045;42.682;23.294;2023-08-20T12:32:43;94784.41;;;37.41;24.85
11971;BME280;6045;42.682;23.294;2023-08-20T12:35:10;94785.97;;;37.28;23.51
11971;BME280;6045;42.682;23.294;2023-08-20T12:37:36;94769.16;;;36.96;24.20
11971;BME280;6045;42.682;23.294;2023-08-20T12:40:04;94771.47;;;36.80;25.30
11971;BME280;6045;42.682;23.294;2023-08-20T12:42:36;94767.50;;;36.81;25.23
11971;BME280;6045;42.682;23.294;2023-08-20T12:45:05;94776.56;;;36.61;24.49
11971;BME280;6045;42.682;23.294;2023-08-20T12:47:32;94765.06;;;36.69;25.04
11971;BME280;6045;42.682;23.294;2023-08-20T12:49:59;94768.34;;;36.92;24.75
11971;BME280;6045;42.682;23.294;2023-08-20T12:52:26;94764.31;;;36.90;25.01
11971;BME280;6045;42.682;23.294;2023-08-20T12:54:53;94780.25;;;36.86;24.92
11971;BME280;6045;42.682;23.294;2023-08-20T12:57:20;94769.66;;;36.41;24.91
11971;BME280;6045;42.682;23.294;2023-08-20T12:59:47;94773.56;;;36.25;25.11
11971;BME280;6045;42.682;23.294;2023-08-20T13:02:15;94765.88;;;36.01;25.13
11971;BME280;6045;42.682;23.294;2023-08-20T13:04:42;94764.44;;;36.25;25.65